sensor_id;sensor_type;location;lat;lon;timestamp;P1;durP1;ratioP1;P2;durP2;ratioP2
72891;SDS011;61032;50.782;6.818;2023-03-12T00:00:03;4.70;;;3.25;;
72891;SDS011;61032;50.782;6.818;2023-03-12T00:01:14;5.97;;;3.25;;
72891;SDS011;61032;50.782;6.818;2023-03-12T00:02:19;6.00;;;2.83;;
72891;SDS011;61032;50.782;6.818;2023-03-12T00:03:20;5.97;;;3.42;;
72891;SDS011;61032;50.782;6.818;2023-03-12T00:04:20;4.70;;;2.88;;
72891;SDS011;61032;50.782;6.818;2023-03-12T00:05:21;7.50;;;3.70;;
72891;SDS011;61032;50.782;6.818;2023-03-12T00:06:21;5.88;;;3.53;;
72891;SDS011;61032;50.782;6.818;2023-03-12T00:07:21;8.07;;;3.67;;
72891;SDS011;61032;50.782;6.818;2023-03-12T00:08:22;6.57;;;3.30;;
72891;SDS011;61032;50.782;6.818;2023-03-12T00:09:22;5.05;;;3.10;;
72891;SDS011;61032;50.782;6.818;2023-03-12T00:10:22;4.95;;;2.95;;
72891;SDS011;61032;50.782;6.818;2023-03-12T00:11:23;5.05;;;3.20;;
72891;SDS011;61032;50.782;6.818;2023-03-12T00:12:23;7.18;;;3.20;;
72891;SDS011;61032;50.782;6.818;2023-03-12T00:13:24;7.88;;;3.33;;
72891;SDS011;61032;50.782;6.818;2023-03-12T00:14:24;4.55;;;2.83;;
72891;SDS011;61032;50.782;6.818;2023-03-12T00:15:24;6.13;;;2.97;;
72891;SDS011;61032;50.782;6.818;2023-03-12T00:16:25;4.72;;;3.55;;
72891;SDS011;61032;50.782;6.818;2023-03-12T00:17:27;4.55;;;2.90;;
72891;SDS011;61032;50.782;6.818;2023-03-12T00:18:28;4.57;;;2.63;;
72891;SDS011;61032;50.782;6.818;2023-03-12T00:19:28;7.30;;;2.60;;
72891;SDS011;61032;50.782;6.818;2023-03-12T00:20:29;6.03;;;3.13;;
72891;SDS011;61032;50.782;6.818;2023-03-12T00:21:29;6.45;;;3.03;;
72891;SDS011;61032;50.782;6.818;2023-03-12T00:22:29;6.05;;;2.60;;
72891;SDS011;61032;50.782;6.818;2023-03-12T00:23:30;6.15;;;2.97;;
72891;SDS011;61032;50.782;6.818;2023-03-12T00:24:30;6.05;;;2.83;;
72891;SDS011;61032;50.782;6.818;2023-03-12T00:25:30;4.47;;;2.70;;
72891;SDS011;61032;50.782;6.818;2023-03-12T00:26:31;7.45;;;2.75;;
72891;SDS011;61032;50.782;6.818;2023-03-12T00:27:31;6.45;;;2.72;;
72891;SDS011;61032;50.782;6.818;2023-03-12T00:28:32;5.40;;;2.40;;
72891;SDS011;61032;50.782;6.818;2023-03-12T00:29:34;6.18;;;3.08;;
72891;SDS011;61032;50.782;6.818;2023-03-12T00:30:34;4.30;;;2.22;;
72891;SDS011;61032;50.782;6.818;2023-03-12T00:31:35;5.15;;;2.80;;
72891;SDS011;61032;50.782;6.818;2023-03-12T00:32:36;5.57;;;2.90;;
72891;SDS011;61032;50.782;6.818;2023-03-12T00:33:37;6.05;;;3.10;;
72891;SDS011;61032;50.782;6.818;2023-03-12T00:34:37;7.05;;;2.55;;
72891;SDS011;61032;50.782;6.818;2023-03-12T00:35:37;3.38;;;2.60;;
72891;SDS011;61032;50.782;6.818;2023-03-12T00:36:38;5.25;;;2.35;;
72891;SDS011;61032;50.782;6.818;2023-03-12T00:37:40;3.75;;;2.30;;
72891;SDS011;61032;50.782;6.818;2023-03-12T00:38:40;4.25;;;2.38;;
72891;SDS011;61032;50.782;6.818;2023-03-12T00:39:41;5.72;;;2.40;;
72891;SDS011;61032;50.782;6.818;2023-03-12T00:40:41;3.97;;;2.15;;
72891;SDS011;61032;50.782;6.818;2023-03-12T00:41:42;4.35;;;2.30;;
72891;SDS011;61032;50.782;6.818;2023-03-12T00:42:42;6.32;;;2.47;;
72891;SDS011;61032;50.782;6.818;2023-03-12T00:43:42;3.25;;;2.47;;
72891;SDS011;61032;50.782;6.818;2023-03-12T00:44:42;7.50;;;1.90;;
72891;SDS011;61032;50.782;6.818;2023-03-12T00:45:43;5.43;;;2.15;;
72891;SDS011;61032;50.782;6.818;2023-03-12T00:46:44;4.75;;;2.17;;
72891;SDS011;61032;50.782;6.818;2023-03-12T00:47:44;4.18;;;2.30;;
72891;SDS011;61032;50.782;6.818;2023-03-12T00:48:44;6.93;;;2.42;;
72891;SDS011;61032;50.782;6.818;2023-03-12T00:49:45;4.10;;;2.03;;
72891;SDS011;61032;50.782;6.818;2023-03-12T00:50:45;4.80;;;1.80;;
72891;SDS011;61032;50.782;6.818;2023-03-12T00:51:46;4.68;;;1.83;;
72891;SDS011;61032;50.782;6.818;2023-03-12T00:52:46;5.10;;;2.60;;
72891;SDS011;61032;50.782;6.818;2023-03-12T00:53:46;3.85;;;2.33;;
72891;SDS011;61032;50.782;6.818;2023-03-12T00:54:47;4.32;;;2.30;;
72891;SDS011;61032;50.782;6.818;2023-03-12T00:55:47;2.55;;;1.60;;
72891;SDS011;61032;50.782;6.818;2023-03-12T00:56:48;2.72;;;2.10;;
72891;SDS011;61032;50.782;6.818;2023-03-12T00:57:48;6.10;;;2.42;;
72891;SDS011;61032;50.782;6.818;2023-03-12T00:58:48;6.90;;;2.55;;
72891;SDS011;61032;50.782;6.818;2023-03-12T00:59:49;5.13;;;2.33;;
72891;SDS011;61032;50.782;6.818;2023-03-12T01:00:49;4.25;;;2.65;;
72891;SDS011;61032;50.782;6.818;2023-03-12T01:01:49;6.15;;;3.67;;
72891;SDS011;61032;50.782;6.818;2023-03-12T01:02:50;11.10;;;4.43;;
72891;SDS011;61032;50.782;6.818;2023-03-12T01:03:50;8.18;;;4.13;;
72891;SDS011;61032;50.782;6.818;2023-03-12T01:04:51;6.82;;;4.40;;
72891;SDS011;61032;50.782;6.818;2023-03-12T01:05:51;9.27;;;5.10;;
72891;SDS011;61032;50.782;6.818;2023-03-12T01:06:54;8.63;;;4.28;;
72891;SDS011;61032;50.782;6.818;2023-03-12T01:07:54;7.43;;;3.58;;
72891;SDS011;61032;50.782;6.818;2023-03-12T01:08:54;5.28;;;2.60;;
72891;SDS011;61032;50.782;6.818;2023-03-12T01:09:55;6.40;;;2.92;;
72891;SDS011;61032;50.782;6.818;2023-03-12T01:10:55;4.15;;;1.95;;
72891;SDS011;61032;50.782;6.818;2023-03-12T01:11:56;4.85;;;2.08;;
72891;SDS011;61032;50.782;6.818;2023-03-12T01:12:56;3.83;;;2.03;;
72891;SDS011;61032;50.782;6.818;2023-03-12T01:13:57;4.70;;;1.73;;
72891;SDS011;61032;50.782;6.818;2023-03-12T01:14:59;3.63;;;2.17;;
72891;SDS011;61032;50.782;6.818;2023-03-12T01:15:59;2.78;;;1.52;;
72891;SDS011;61032;50.782;6.818;2023-03-12T01:16:59;11.70;;;2.38;;
72891;SDS011;61032;50.782;6.818;2023-03-12T01:18:00;3.80;;;1.77;;
72891;SDS011;61032;50.782;6.818;2023-03-12T01:19:00;2.65;;;1.50;;
72891;SDS011;61032;50.782;6.818;2023-03-12T01:20:02;4.28;;;1.75;;
72891;SDS011;61032;50.782;6.818;2023-03-12T01:21:04;3.03;;;1.77;;
72891;SDS011;61032;50.782;6.818;2023-03-12T01:22:05;3.85;;;1.33;;
72891;SDS011;61032;50.782;6.818;2023-03-12T01:23:05;4.22;;;1.83;;
72891;SDS011;61032;50.782;6.818;2023-03-12T01:24:06;3.72;;;1.50;;
72891;SDS011;61032;50.782;6.818;2023-03-12T01:25:07;2.67;;;1.42;;
72891;SDS011;61032;50.782;6.818;2023-03-12T01:26:07;1.55;;;1.27;;
72891;SDS011;61032;50.782;6.818;2023-03-12T01:27:08;3.63;;;1.75;;
72891;SDS011;61032;50.782;6.818;2023-03-12T01:29:18;5.15;;;2.25;;
72891;SDS011;61032;50.782;6.818;2023-03-12T01:30:18;4.30;;;1.70;;
72891;SDS011;61032;50.782;6.818;2023-03-12T01:31:19;3.15;;;1.40;;
72891;SDS011;61032;50.782;6.818;2023-03-12T01:32:19;3.58;;;1.55;;
72891;SDS011;61032;50.782;6.818;2023-03-12T01:33:19;3.55;;;1.65;;
72891;SDS011;61032;50.782;6.818;2023-03-12T01:34:21;4.30;;;1.85;;
72891;SDS011;61032;50.782;6.818;2023-03-12T01:35:22;4.25;;;2.00;;
72891;SDS011;61032;50.782;6.818;2023-03-12T01:36:24;4.25;;;1.55;;
72891;SDS011;61032;50.782;6.818;2023-03-12T01:37:27;3.75;;;1.95;;
72891;SDS011;61032;50.782;6.818;2023-03-12T01:38:27;2.83;;;1.75;;
72891;SDS011;61032;50.782;6.818;2023-03-12T01:39:28;3.72;;;2.50;;
72891;SDS011;61032;50.782;6.818;2023-03-12T01:40:28;5.35;;;2.25;;
72891;SDS011;61032;50.782;6.818;2023-03-12T01:41:31;3.92;;;1.67;;
72891;SDS011;61032;50.782;6.818;2023-03-12T01:42:32;3.55;;;1.88;;
72891;SDS011;61032;50.782;6.818;2023-03-12T01:43:33;4.75;;;2.30;;
72891;SDS011;61032;50.782;6.818;2023-03-12T01:46:02;5.97;;;2.60;;
72891;SDS011;61032;50.782;6.818;2023-03-12T01:47:03;6.20;;;2.42;;
72891;SDS011;61032;50.782;6.818;2023-03-12T01:48:04;7.90;;;2.60;;
72891;SDS011;61032;50.782;6.818;2023-03-12T01:49:06;9.98;;;3.13;;
72891;SDS011;61032;50.782;6.818;2023-03-12T01:50:10;8.70;;;3.30;;
72891;SDS011;61032;50.782;6.818;2023-03-12T01:51:11;6.50;;;2.88;;
72891;SDS011;61032;50.782;6.818;2023-03-12T01:55:41;6.13;;;3.35;;
72891;SDS011;61032;50.782;6.818;2023-03-12T01:56:42;4.30;;;2.67;;
72891;SDS011;61032;50.782;6.818;2023-03-12T01:57:47;3.83;;;2.33;;
72891;SDS011;61032;50.782;6.818;2023-03-12T01:58:51;4.80;;;2.15;;
72891;SDS011;61032;50.782;6.818;2023-03-12T01:59:59;3.10;;;1.58;;
72891;SDS011;61032;50.782;6.818;2023-03-12T02:01:04;4.00;;;3.13;;
72891;SDS011;61032;50.782;6.818;2023-03-12T02:02:05;5.93;;;2.65;;
72891;SDS011;61032;50.782;6.818;2023-03-12T02:03:07;2.45;;;2.25;;
72891;SDS011;61032;50.782;6.818;2023-03-12T02:04:09;3.45;;;1.83;;
72891;SDS011;61032;50.782;6.818;2023-03-12T02:06:20;4.20;;;2.20;;
72891;SDS011;61032;50.782;6.818;2023-03-12T02:08:26;3.88;;;1.35;;
72891;SDS011;61032;50.782;6.818;2023-03-12T02:09:27;5.15;;;1.63;;
72891;SDS011;61032;50.782;6.818;2023-03-12T02:10:29;3.85;;;2.33;;
72891;SDS011;61032;50.782;6.818;2023-03-12T02:11:29;3.63;;;2.05;;
72891;SDS011;61032;50.782;6.818;2023-03-12T02:12:30;2.70;;;2.08;;
72891;SDS011;61032;50.782;6.818;2023-03-12T02:13:30;4.00;;;1.73;;
72891;SDS011;61032;50.782;6.818;2023-03-12T02:14:31;4.82;;;2.33;;
72891;SDS011;61032;50.782;6.818;2023-03-12T02:15:32;2.05;;;1.83;;
72891;SDS011;61032;50.782;6.818;2023-03-12T02:18:48;4.42;;;1.51;;
72891;SDS011;61032;50.782;6.818;2023-03-12T02:22:30;3.97;;;2.22;;
72891;SDS011;61032;50.782;6.818;2023-03-12T02:23:32;3.97;;;1.85;;
72891;SDS011;61032;50.782;6.818;2023-03-12T02:25:53;4.07;;;2.28;;
72891;SDS011;61032;50.782;6.818;2023-03-12T02:26:55;3.97;;;1.30;;
72891;SDS011;61032;50.782;6.818;2023-03-12T02:27:59;4.78;;;1.60;;
72891;SDS011;61032;50.782;6.818;2023-03-12T02:29:04;2.50;;;1.25;;
72891;SDS011;61032;50.782;6.818;2023-03-12T02:30:06;4.57;;;1.58;;
72891;SDS011;61032;50.782;6.818;2023-03-12T02:31:07;3.50;;;1.90;;
72891;SDS011;61032;50.782;6.818;2023-03-12T02:32:17;5.50;;;2.13;;
72891;SDS011;61032;50.782;6.818;2023-03-12T02:33:22;2.83;;;2.30;;
72891;SDS011;61032;50.782;6.818;2023-03-12T02:34:22;2.90;;;2.35;;
72891;SDS011;61032;50.782;6.818;2023-03-12T02:35:22;3.88;;;2.47;;
72891;SDS011;61032;50.782;6.818;2023-03-12T02:36:23;2.75;;;1.33;;
72891;SDS011;61032;50.782;6.818;2023-03-12T02:37:23;3.65;;;2.67;;
72891;SDS011;61032;50.782;6.818;2023-03-12T02:39:33;2.15;;;1.45;;
72891;SDS011;61032;50.782;6.818;2023-03-12T02:40:36;3.13;;;1.42;;
72891;SDS011;61032;50.782;6.818;2023-03-12T02:41:42;3.17;;;1.33;;
72891;SDS011;61032;50.782;6.818;2023-03-12T02:42:44;4.50;;;1.70;;
72891;SDS011;61032;50.782;6.818;2023-03-12T02:43:49;2.80;;;2.20;;
72891;SDS011;61032;50.782;6.818;2023-03-12T02:44:57;6.53;;;2.75;;
72891;SDS011;61032;50.782;6.818;2023-03-12T02:45:57;5.05;;;2.13;;
72891;SDS011;61032;50.782;6.818;2023-03-12T02:46:58;3.45;;;2.65;;
72891;SDS011;61032;50.782;6.818;2023-03-12T02:48:00;4.50;;;3.13;;
72891;SDS011;61032;50.782;6.818;2023-03-12T02:49:01;7.70;;;4.28;;
72891;SDS011;61032;50.782;6.818;2023-03-12T02:50:01;5.68;;;3.30;;
72891;SDS011;61032;50.782;6.818;2023-03-12T02:51:02;4.63;;;3.42;;
72891;SDS011;61032;50.782;6.818;2023-03-12T02:52:03;5.75;;;3.17;;
72891;SDS011;61032;50.782;6.818;2023-03-12T02:53:03;6.03;;;3.30;;
72891;SDS011;61032;50.782;6.818;2023-03-12T02:54:04;5.28;;;3.03;;
72891;SDS011;61032;50.782;6.818;2023-03-12T02:55:05;5.07;;;2.50;;
72891;SDS011;61032;50.782;6.818;2023-03-12T02:56:06;3.55;;;2.42;;
72891;SDS011;61032;50.782;6.818;2023-03-12T02:57:06;3.13;;;2.67;;
72891;SDS011;61032;50.782;6.818;2023-03-12T02:58:07;4.25;;;2.42;;
72891;SDS011;61032;50.782;6.818;2023-03-12T02:59:07;4.70;;;2.35;;
72891;SDS011;61032;50.782;6.818;2023-03-12T03:00:09;2.65;;;2.40;;
72891;SDS011;61032;50.782;6.818;2023-03-12T03:01:11;4.40;;;1.83;;
72891;SDS011;61032;50.782;6.818;2023-03-12T03:02:11;6.22;;;2.85;;
72891;SDS011;61032;50.782;6.818;2023-03-12T03:03:12;6.40;;;3.85;;
72891;SDS011;61032;50.782;6.818;2023-03-12T03:04:12;6.72;;;4.30;;
72891;SDS011;61032;50.782;6.818;2023-03-12T03:05:12;7.53;;;4.60;;
72891;SDS011;61032;50.782;6.818;2023-03-12T03:06:13;6.13;;;4.15;;
72891;SDS011;61032;50.782;6.818;2023-03-12T03:07:13;6.32;;;3.25;;
72891;SDS011;61032;50.782;6.818;2023-03-12T03:08:14;5.80;;;3.88;;
72891;SDS011;61032;50.782;6.818;2023-03-12T03:09:14;6.57;;;3.33;;
72891;SDS011;61032;50.782;6.818;2023-03-12T03:10:14;5.72;;;3.30;;
72891;SDS011;61032;50.782;6.818;2023-03-12T03:11:16;2.95;;;2.35;;
72891;SDS011;61032;50.782;6.818;2023-03-12T03:12:17;3.90;;;2.45;;
72891;SDS011;61032;50.782;6.818;2023-03-12T03:13:17;2.60;;;2.20;;
72891;SDS011;61032;50.782;6.818;2023-03-12T03:14:17;5.47;;;2.40;;
72891;SDS011;61032;50.782;6.818;2023-03-12T03:15:18;4.95;;;2.70;;
72891;SDS011;61032;50.782;6.818;2023-03-12T03:16:18;3.97;;;1.65;;
72891;SDS011;61032;50.782;6.818;2023-03-12T03:17:19;2.25;;;2.05;;
72891;SDS011;61032;50.782;6.818;2023-03-12T03:18:25;3.30;;;2.10;;
72891;SDS011;61032;50.782;6.818;2023-03-12T03:19:25;6.13;;;1.67;;
72891;SDS011;61032;50.782;6.818;2023-03-12T03:20:25;3.72;;;2.17;;
72891;SDS011;61032;50.782;6.818;2023-03-12T03:21:26;4.85;;;1.48;;
72891;SDS011;61032;50.782;6.818;2023-03-12T03:22:26;2.95;;;2.38;;
72891;SDS011;61032;50.782;6.818;2023-03-12T03:23:26;3.50;;;2.22;;
72891;SDS011;61032;50.782;6.818;2023-03-12T03:24:27;4.25;;;2.15;;
72891;SDS011;61032;50.782;6.818;2023-03-12T03:25:27;3.28;;;1.98;;
72891;SDS011;61032;50.782;6.818;2023-03-12T03:26:27;2.45;;;2.25;;
72891;SDS011;61032;50.782;6.818;2023-03-12T03:27:28;3.00;;;2.20;;
72891;SDS011;61032;50.782;6.818;2023-03-12T03:28:28;3.15;;;1.98;;
72891;SDS011;61032;50.782;6.818;2023-03-12T03:29:29;2.33;;;2.05;;
72891;SDS011;61032;50.782;6.818;2023-03-12T03:30:29;4.82;;;1.67;;
72891;SDS011;61032;50.782;6.818;2023-03-12T03:31:30;2.78;;;2.33;;
72891;SDS011;61032;50.782;6.818;2023-03-12T03:32:30;2.67;;;2.05;;
72891;SDS011;61032;50.782;6.818;2023-03-12T03:33:31;4.70;;;1.85;;
72891;SDS011;61032;50.782;6.818;2023-03-12T03:34:33;4.75;;;2.30;;
72891;SDS011;61032;50.782;6.818;2023-03-12T03:35:33;4.65;;;1.70;;
72891;SDS011;61032;50.782;6.818;2023-03-12T03:36:33;2.63;;;2.40;;
72891;SDS011;61032;50.782;6.818;2023-03-12T03:37:34;7.65;;;3.28;;
72891;SDS011;61032;50.782;6.818;2023-03-12T03:38:34;4.30;;;2.47;;
72891;SDS011;61032;50.782;6.818;2023-03-12T03:39:35;7.80;;;4.20;;
72891;SDS011;61032;50.782;6.818;2023-03-12T03:40:36;6.15;;;3.33;;
72891;SDS011;61032;50.782;6.818;2023-03-12T03:41:36;4.07;;;3.65;;
72891;SDS011;61032;50.782;6.818;2023-03-12T03:42:37;6.30;;;3.00;;
72891;SDS011;61032;50.782;6.818;2023-03-12T03:43:38;6.15;;;4.03;;
72891;SDS011;61032;50.782;6.818;2023-03-12T03:44:38;4.35;;;3.17;;
72891;SDS011;61032;50.782;6.818;2023-03-12T03:45:39;5.00;;;3.67;;
72891;SDS011;61032;50.782;6.818;2023-03-12T03:46:39;5.07;;;3.45;;
72891;SDS011;61032;50.782;6.818;2023-03-12T03:47:39;3.83;;;2.35;;
72891;SDS011;61032;50.782;6.818;2023-03-12T03:48:40;4.38;;;2.08;;
72891;SDS011;61032;50.782;6.818;2023-03-12T03:49:40;5.70;;;3.63;;
72891;SDS011;61032;50.782;6.818;2023-03-12T03:50:41;3.10;;;2.33;;
72891;SDS011;61032;50.782;6.818;2023-03-12T03:51:41;4.88;;;2.42;;
72891;SDS011;61032;50.782;6.818;2023-03-12T03:52:42;7.55;;;2.67;;
72891;SDS011;61032;50.782;6.818;2023-03-12T03:53:42;3.40;;;2.22;;
72891;SDS011;61032;50.782;6.818;2023-03-12T03:54:42;2.60;;;1.65;;
72891;SDS011;61032;50.782;6.818;2023-03-12T03:55:43;4.75;;;2.92;;
72891;SDS011;61032;50.782;6.818;2023-03-12T03:56:43;3.42;;;1.50;;
72891;SDS011;61032;50.782;6.818;2023-03-12T03:57:44;3.10;;;2.03;;
72891;SDS011;61032;50.782;6.818;2023-03-12T03:58:44;2.67;;;1.98;;
72891;SDS011;61032;50.782;6.818;2023-03-12T03:59:44;2.50;;;2.17;;
72891;SDS011;61032;50.782;6.818;2023-03-12T04:00:45;5.13;;;2.63;;
72891;SDS011;61032;50.782;6.818;2023-03-12T04:01:45;6.50;;;2.47;;
72891;SDS011;61032;50.782;6.818;2023-03-12T04:02:46;3.40;;;2.28;;
72891;SDS011;61032;50.782;6.818;2023-03-12T04:03:46;2.28;;;1.65;;
72891;SDS011;61032;50.782;6.818;2023-03-12T04:04:47;3.60;;;1.95;;
72891;SDS011;61032;50.782;6.818;2023-03-12T04:05:52;2.83;;;1.95;;
72891;SDS011;61032;50.782;6.818;2023-03-12T04:06:54;2.75;;;1.63;;
72891;SDS011;61032;50.782;6.818;2023-03-12T04:07:54;4.75;;;2.33;;
72891;SDS011;61032;50.782;6.818;2023-03-12T04:08:55;2.97;;;2.60;;
72891;SDS011;61032;50.782;6.818;2023-03-12T04:09:57;3.25;;;1.52;;
72891;SDS011;61032;50.782;6.818;2023-03-12T04:10:57;2.38;;;2.17;;
72891;SDS011;61032;50.782;6.818;2023-03-12T04:11:57;3.58;;;1.42;;
72891;SDS011;61032;50.782;6.818;2023-03-12T04:12:58;2.42;;;1.60;;
72891;SDS011;61032;50.782;6.818;2023-03-12T04:13:58;4.55;;;1.52;;
72891;SDS011;61032;50.782;6.818;2023-03-12T04:14:58;2.35;;;1.33;;
72891;SDS011;61032;50.782;6.818;2023-03-12T04:15:59;2.72;;;2.30;;
72891;SDS011;61032;50.782;6.818;2023-03-12T04:16:59;2.38;;;1.67;;
72891;SDS011;61032;50.782;6.818;2023-03-12T04:17:59;4.18;;;1.88;;
72891;SDS011;61032;50.782;6.818;2023-03-12T04:19:00;3.83;;;1.73;;
72891;SDS011;61032;50.782;6.818;2023-03-12T04:20:00;3.25;;;2.08;;
72891;SDS011;61032;50.782;6.818;2023-03-12T04:21:01;2.55;;;1.90;;
72891;SDS011;61032;50.782;6.818;2023-03-12T04:23:03;2.65;;;2.35;;
72891;SDS011;61032;50.782;6.818;2023-03-12T04:24:04;2.72;;;2.20;;
72891;SDS011;61032;50.782;6.818;2023-03-12T04:25:05;2.10;;;1.80;;
72891;SDS011;61032;50.782;6.818;2023-03-12T04:26:06;4.35;;;1.60;;
72891;SDS011;61032;50.782;6.818;2023-03-12T04:27:07;3.40;;;1.60;;
72891;SDS011;61032;50.782;6.818;2023-03-12T04:28:07;4.90;;;1.50;;
72891;SDS011;61032;50.782;6.818;2023-03-12T04:29:07;2.80;;;1.90;;
72891;SDS011;61032;50.782;6.818;2023-03-12T04:30:08;3.67;;;1.88;;
72891;SDS011;61032;50.782;6.818;2023-03-12T04:31:09;3.08;;;2.00;;
72891;SDS011;61032;50.782;6.818;2023-03-12T04:32:10;5.07;;;2.10;;
72891;SDS011;61032;50.782;6.818;2023-03-12T04:33:10;3.78;;;1.80;;
72891;SDS011;61032;50.782;6.818;2023-03-12T04:34:11;3.85;;;1.95;;
72891;SDS011;61032;50.782;6.818;2023-03-12T04:35:11;3.92;;;2.40;;
72891;SDS011;61032;50.782;6.818;2023-03-12T04:36:12;2.15;;;1.30;;
72891;SDS011;61032;50.782;6.818;2023-03-12T04:37:17;4.88;;;1.75;;
72891;SDS011;61032;50.782;6.818;2023-03-12T04:38:17;2.63;;;1.30;;
72891;SDS011;61032;50.782;6.818;2023-03-12T04:39:19;2.13;;;1.95;;
72891;SDS011;61032;50.782;6.818;2023-03-12T04:40:19;4.30;;;2.30;;
72891;SDS011;61032;50.782;6.818;2023-03-12T04:41:20;4.72;;;1.83;;
72891;SDS011;61032;50.782;6.818;2023-03-12T04:42:20;4.60;;;2.47;;
72891;SDS011;61032;50.782;6.818;2023-03-12T04:43:20;2.97;;;1.35;;
72891;SDS011;61032;50.782;6.818;2023-03-12T04:44:23;5.05;;;2.05;;
72891;SDS011;61032;50.782;6.818;2023-03-12T04:45:24;5.18;;;1.80;;
72891;SDS011;61032;50.782;6.818;2023-03-12T04:46:24;1.60;;;1.20;;
72891;SDS011;61032;50.782;6.818;2023-03-12T04:47:24;3.08;;;1.67;;
72891;SDS011;61032;50.782;6.818;2023-03-12T04:48:25;3.03;;;1.20;;
72891;SDS011;61032;50.782;6.818;2023-03-12T04:49:26;3.05;;;1.55;;
72891;SDS011;61032;50.782;6.818;2023-03-12T04:50:26;2.75;;;1.65;;
72891;SDS011;61032;50.782;6.818;2023-03-12T04:51:27;2.95;;;1.73;;
72891;SDS011;61032;50.782;6.818;2023-03-12T04:52:28;4.90;;;1.63;;
72891;SDS011;61032;50.782;6.818;2023-03-12T04:53:29;4.18;;;1.65;;
72891;SDS011;61032;50.782;6.818;2023-03-12T04:54:29;2.95;;;1.70;;
72891;SDS011;61032;50.782;6.818;2023-03-12T04:55:30;3.28;;;1.42;;
72891;SDS011;61032;50.782;6.818;2023-03-12T04:56:31;2.60;;;1.83;;
72891;SDS011;61032;50.782;6.818;2023-03-12T04:57:31;2.83;;;1.35;;
72891;SDS011;61032;50.782;6.818;2023-03-12T04:58:31;5.28;;;1.50;;
72891;SDS011;61032;50.782;6.818;2023-03-12T04:59:32;3.97;;;2.10;;
72891;SDS011;61032;50.782;6.818;2023-03-12T05:00:32;3.75;;;1.60;;
72891;SDS011;61032;50.782;6.818;2023-03-12T05:01:34;4.55;;;1.85;;
72891;SDS011;61032;50.782;6.818;2023-03-12T05:02:35;2.45;;;1.50;;
72891;SDS011;61032;50.782;6.818;2023-03-12T05:03:36;3.42;;;1.55;;
72891;SDS011;61032;50.782;6.818;2023-03-12T05:04:37;3.88;;;1.88;;
72891;SDS011;61032;50.782;6.818;2023-03-12T05:05:37;3.92;;;1.95;;
72891;SDS011;61032;50.782;6.818;2023-03-12T05:06:38;3.75;;;1.80;;
72891;SDS011;61032;50.782;6.818;2023-03-12T05:07:38;2.67;;;1.20;;
72891;SDS011;61032;50.782;6.818;2023-03-12T05:08:38;4.93;;;1.95;;
72891;SDS011;61032;50.782;6.818;2023-03-12T05:09:39;4.90;;;1.70;;
72891;SDS011;61032;50.782;6.818;2023-03-12T05:10:39;5.55;;;2.25;;
72891;SDS011;61032;50.782;6.818;2023-03-12T05:11:39;3.03;;;2.05;;
72891;SDS011;61032;50.782;6.818;2023-03-12T05:12:40;2.95;;;1.85;;
72891;SDS011;61032;50.782;6.818;2023-03-12T05:13:40;5.10;;;1.65;;
72891;SDS011;61032;50.782;6.818;2023-03-12T05:14:41;4.78;;;1.80;;
72891;SDS011;61032;50.782;6.818;2023-03-12T05:15:41;3.00;;;2.28;;
72891;SDS011;61032;50.782;6.818;2023-03-12T05:16:42;4.60;;;2.15;;
72891;SDS011;61032;50.782;6.818;2023-03-12T05:17:43;2.42;;;1.80;;
72891;SDS011;61032;50.782;6.818;2023-03-12T05:18:43;4.97;;;1.35;;
72891;SDS011;61032;50.782;6.818;2023-03-12T05:19:44;2.25;;;1.10;;
72891;SDS011;61032;50.782;6.818;2023-03-12T05:20:44;4.97;;;1.83;;
72891;SDS011;61032;50.782;6.818;2023-03-12T05:21:45;1.50;;;1.27;;
72891;SDS011;61032;50.782;6.818;2023-03-12T05:22:45;3.50;;;1.48;;
72891;SDS011;61032;50.782;6.818;2023-03-12T05:23:46;4.57;;;1.60;;
72891;SDS011;61032;50.782;6.818;2023-03-12T05:24:47;5.43;;;1.25;;
72891;SDS011;61032;50.782;6.818;2023-03-12T05:25:47;3.33;;;2.00;;
72891;SDS011;61032;50.782;6.818;2023-03-12T05:26:48;3.33;;;1.02;;
72891;SDS011;61032;50.782;6.818;2023-03-12T05:27:48;2.92;;;1.33;;
72891;SDS011;61032;50.782;6.818;2023-03-12T05:28:49;3.13;;;1.23;;
72891;SDS011;61032;50.782;6.818;2023-03-12T05:29:49;3.03;;;1.38;;
72891;SDS011;61032;50.782;6.818;2023-03-12T05:30:49;2.95;;;1.10;;
72891;SDS011;61032;50.782;6.818;2023-03-12T05:31:50;5.55;;;1.10;;
72891;SDS011;61032;50.782;6.818;2023-03-12T05:32:50;5.55;;;1.83;;
72891;SDS011;61032;50.782;6.818;2023-03-12T05:33:51;5.13;;;2.17;;
72891;SDS011;61032;50.782;6.818;2023-03-12T05:34:51;3.83;;;1.17;;
72891;SDS011;61032;50.782;6.818;2023-03-12T05:35:52;3.35;;;1.55;;
72891;SDS011;61032;50.782;6.818;2023-03-12T05:36:52;4.05;;;1.23;;
72891;SDS011;61032;50.782;6.818;2023-03-12T05:37:52;4.15;;;1.20;;
72891;SDS011;61032;50.782;6.818;2023-03-12T05:38:53;2.33;;;1.25;;
72891;SDS011;61032;50.782;6.818;2023-03-12T05:39:53;6.60;;;1.35;;
72891;SDS011;61032;50.782;6.818;2023-03-12T05:40:54;5.20;;;1.80;;
72891;SDS011;61032;50.782;6.818;2023-03-12T05:41:58;3.28;;;1.88;;
72891;SDS011;61032;50.782;6.818;2023-03-12T05:42:58;5.88;;;2.22;;
72891;SDS011;61032;50.782;6.818;2023-03-12T05:43:58;4.22;;;1.15;;
72891;SDS011;61032;50.782;6.818;2023-03-12T05:44:59;4.18;;;1.88;;
72891;SDS011;61032;50.782;6.818;2023-03-12T05:46:00;4.18;;;1.65;;
72891;SDS011;61032;50.782;6.818;2023-03-12T05:47:02;4.43;;;1.92;;
72891;SDS011;61032;50.782;6.818;2023-03-12T05:48:03;2.63;;;2.10;;
72891;SDS011;61032;50.782;6.818;2023-03-12T05:49:03;5.82;;;1.40;;
72891;SDS011;61032;50.782;6.818;2023-03-12T05:50:03;4.72;;;2.40;;
72891;SDS011;61032;50.782;6.818;2023-03-12T05:51:04;6.22;;;2.03;;
72891;SDS011;61032;50.782;6.818;2023-03-12T05:52:04;4.15;;;1.08;;
72891;SDS011;61032;50.782;6.818;2023-03-12T05:53:05;2.20;;;1.77;;
72891;SDS011;61032;50.782;6.818;2023-03-12T05:54:06;3.95;;;1.30;;
72891;SDS011;61032;50.782;6.818;2023-03-12T05:55:06;4.07;;;1.23;;
72891;SDS011;61032;50.782;6.818;2023-03-12T05:56:08;3.92;;;1.52;;
72891;SDS011;61032;50.782;6.818;2023-03-12T05:57:11;5.28;;;2.08;;
72891;SDS011;61032;50.782;6.818;2023-03-12T05:58:12;2.00;;;1.73;;
72891;SDS011;61032;50.782;6.818;2023-03-12T05:59:12;5.13;;;1.40;;
72891;SDS011;61032;50.782;6.818;2023-03-12T06:00:12;7.93;;;2.22;;
72891;SDS011;61032;50.782;6.818;2023-03-12T06:01:15;4.18;;;2.03;;
72891;SDS011;61032;50.782;6.818;2023-03-12T06:02:17;2.22;;;1.88;;
72891;SDS011;61032;50.782;6.818;2023-03-12T06:03:18;3.58;;;1.30;;
72891;SDS011;61032;50.782;6.818;2023-03-12T06:04:19;6.57;;;2.03;;
72891;SDS011;61032;50.782;6.818;2023-03-12T06:05:19;2.22;;;1.20;;
72891;SDS011;61032;50.782;6.818;2023-03-12T06:06:19;4.60;;;1.00;;
72891;SDS011;61032;50.782;6.818;2023-03-12T06:07:20;2.05;;;1.25;;
72891;SDS011;61032;50.782;6.818;2023-03-12T06:08:21;3.00;;;2.28;;
72891;SDS011;61032;50.782;6.818;2023-03-12T06:09:24;2.38;;;1.25;;
72891;SDS011;61032;50.782;6.818;2023-03-12T06:10:24;4.75;;;2.30;;
72891;SDS011;61032;50.782;6.818;2023-03-12T06:11:25;3.88;;;2.28;;
72891;SDS011;61032;50.782;6.818;2023-03-12T06:12:26;1.80;;;1.30;;
72891;SDS011;61032;50.782;6.818;2023-03-12T06:13:26;3.63;;;1.40;;
72891;SDS011;61032;50.782;6.818;2023-03-12T06:14:27;2.38;;;1.98;;
72891;SDS011;61032;50.782;6.818;2023-03-12T06:15:27;3.85;;;1.98;;
72891;SDS011;61032;50.782;6.818;2023-03-12T06:16:28;2.95;;;1.63;;
72891;SDS011;61032;50.782;6.818;2023-03-12T06:17:29;2.95;;;1.67;;
72891;SDS011;61032;50.782;6.818;2023-03-12T06:18:31;2.40;;;1.60;;
72891;SDS011;61032;50.782;6.818;2023-03-12T06:19:32;3.47;;;1.27;;
72891;SDS011;61032;50.782;6.818;2023-03-12T06:20:32;2.92;;;1.92;;
72891;SDS011;61032;50.782;6.818;2023-03-12T06:21:34;1.60;;;1.40;;
72891;SDS011;61032;50.782;6.818;2023-03-12T06:22:35;2.80;;;1.40;;
72891;SDS011;61032;50.782;6.818;2023-03-12T06:23:35;3.53;;;1.80;;